sensor_id;sensor_type;location;lat;lon;timestamp;pressure;altitude;pressure_sealevel;temperature;humidity
58622;BME280;44389;51.578;5.456;2023-05-02T00:01:14;101864.59;;;9.76;100.00
58622;BME280;44389;51.578;5.456;2023-05-02T00:03:39;101874.97;;;9.78;100.00
58622;BME280;44389;51.578;5.456;2023-05-02T00:06:06;101862.00;;;9.76;100.00
58622;BME280;44389;51.578;5.456;2023-05-02T00:08:31;101878.34;;;9.77;100.00
58622;BME280;44389;51.578;5.456;2023-05-02T00:10:58;101881.78;;;9.77;100.00
58622;BME280;44389;51.578;5.456;2023-05-02T00:13:23;101887.03;;;9.79;100.00
58622;BME280;44389;51.578;5.456;2023-05-02T00:15:48;101888.69;;;9.78;100.00
58622;BME280;44389;51.578;5.456;2023-05-02T00:18:14;101893.78;;;9.77;100.00
58622;BME280;44389;51.578;5.456;2023-05-02T00:20:39;101896.22;;;9.74;100.00
58622;BME280;44389;51.578;5.456;2023-05-02T00:23:06;101896.03;;;9.70;100.00
58622;BME280;44389;51.578;5.456;2023-05-02T00:25:31;101900.97;;;9.66;100.00
58622;BME280;44389;51.578;5.456;2023-05-02T00:27:56;101897.28;;;9.61;100.00
58622;BME280;44389;51.578;5.456;2023-05-02T00:30:21;101899.69;;;9.58;100.00
58622;BME280;44389;51.578;5.456;2023-05-02T00:32:47;101895.19;;;9.53;100.00
58622;BME280;44389;51.578;5.456;2023-05-02T00:35:12;101899.28;;;9.50;100.00
58622;BME280;44389;51.578;5.456;2023-05-02T00:37:37;101900.03;;;9.47;100.00
58622;BME280;44389;51.578;5.456;2023-05-02T00:40:03;101903.97;;;9.41;100.00
58622;BME280;44389;51.578;5.456;2023-05-02T00:42:29;101904.56;;;9.35;100.00
58622;BME280;44389;51.578;5.456;2023-05-02T00:44:58;101906.88;;;9.30;100.00
58622;BME280;44389;51.578;5.456;2023-05-02T00:47:24;101904.06;;;9.26;100.00
58622;BME280;44389;51.578;5.456;2023-05-02T00:49:49;101908.19;;;9.22;100.00
58622;BME280;44389;51.578;5.456;2023-05-02T00:52:14;101909.78;;;9.20;100.00
58622;BME280;44389;51.578;5.456;2023-05-02T00:54:40;101918.06;;;9.14;100.00
58622;BME280;44389;51.578;5.456;2023-05-02T00:57:06;101914.53;;;9.12;100.00
58622;BME280;44389;51.578;5.456;2023-05-02T00:59:33;101913.41;;;9.07;100.00
58622;BME280;44389;51.578;5.456;2023-05-02T01:13:21;101912.91;;;8.98;100.00
58622;BME280;44389;51.578;5.456;2023-05-02T01:15:50;101911.94;;;8.96;100.00
58622;BME280;44389;51.578;5.456;2023-05-02T01:18:21;101912.66;;;8.93;100.00
58622;BME280;44389;51.578;5.456;2023-05-02T01:20:52;101912.72;;;8.95;100.00
58622;BME280;44389;51.578;5.456;2023-05-02T01:23:45;101910.28;;;8.96;100.00
58622;BME280;44389;51.578;5.456;2023-05-02T01:26:31;101909.38;;;8.96;100.00
58622;BME280;44389;51.578;5.456;2023-05-02T01:29:03;101903.81;;;8.88;100.00
58622;BME280;44389;51.578;5.456;2023-05-02T01:31:38;101908.72;;;8.83;100.00
58622;BME280;44389;51.578;5.456;2023-05-02T01:34:08;101915.47;;;8.81;100.00
58622;BME280;44389;51.578;5.456;2023-05-02T01:36:42;101911.75;;;8.76;100.00
58622;BME280;44389;51.578;5.456;2023-05-02T01:39:10;101916.91;;;8.76;100.00
58622;BME280;44389;51.578;5.456;2023-05-02T01:41:38;101916.19;;;8.79;100.00
58622;BME280;44389;51.578;5.456;2023-05-02T01:44:06;101922.22;;;8.79;100.00
58622;BME280;44389;51.578;5.456;2023-05-02T01:46:35;101921.41;;;8.80;100.00
58622;BME280;44389;51.578;5.456;2023-05-02T01:49:04;101928.38;;;8.83;100.00
58622;BME280;44389;51.578;5.456;2023-05-02T01:51:31;101931.56;;;8.94;100.00
58622;BME280;44389;51.578;5.456;2023-05-02T01:54:02;101938.84;;;8.86;100.00
58622;BME280;44389;51.578;5.456;2023-05-02T01:56:31;101932.81;;;8.85;100.00
58622;BME280;44389;51.578;5.456;2023-05-02T01:58:58;101931.22;;;8.87;100.00
58622;BME280;44389;51.578;5.456;2023-05-02T02:01:25;101936.50;;;8.90;100.00
58622;BME280;44389;51.578;5.456;2023-05-02T02:03:57;101940.78;;;8.90;100.00
58622;BME280;44389;51.578;5.456;2023-05-02T02:06:23;101941.66;;;8.90;100.00
58622;BME280;44389;51.578;5.456;2023-05-02T02:08:49;101937.50;;;8.93;100.00
58622;BME280;44389;51.578;5.456;2023-05-02T02:14:18;101948.66;;;8.93;100.00
58622;BME280;44389;51.578;5.456;2023-05-02T02:16:44;101954.06;;;8.98;100.00
58622;BME280;44389;51.578;5.456;2023-05-02T02:19:13;101954.06;;;8.98;100.00
58622;BME280;44389;51.578;5.456;2023-05-02T02:21:41;101954.94;;;8.98;100.00
58622;BME280;44389;51.578;5.456;2023-05-02T02:24:07;101958.47;;;9.00;100.00
58622;BME280;44389;51.578;5.456;2023-05-02T02:26:35;101951.56;;;8.99;100.00
58622;BME280;44389;51.578;5.456;2023-05-02T02:29:01;101957.56;;;9.00;100.00
58622;BME280;44389;51.578;5.456;2023-05-02T02:31:34;101960.06;;;8.98;100.00
58622;BME280;44389;51.578;5.456;2023-05-02T02:34:00;101960.06;;;8.98;100.00
58622;BME280;44389;51.578;5.456;2023-05-02T02:36:44;101960.97;;;8.99;100.00
58622;BME280;44389;51.578;5.456;2023-05-02T02:39:24;101957.41;;;8.97;100.00
58622;BME280;44389;51.578;5.456;2023-05-02T02:45:08;101968.75;;;9.00;100.00
58622;BME280;44389;51.578;5.456;2023-05-02T02:47:43;101967.88;;;9.00;100.00
58622;BME280;44389;51.578;5.456;2023-05-02T02:50:22;101975.69;;;9.01;100.00
58622;BME280;44389;51.578;5.456;2023-05-02T02:52:56;101971.34;;;9.00;100.00
58622;BME280;44389;51.578;5.456;2023-05-02T02:55:30;101969.63;;;9.01;100.00
58622;BME280;44389;51.578;5.456;2023-05-02T03:00:33;101974.78;;;9.01;100.00
58622;BME280;44389;51.578;5.456;2023-05-02T03:02:59;101975.69;;;9.01;100.00
58622;BME280;44389;51.578;5.456;2023-05-02T03:05:25;101976.56;;;9.02;100.00
58622;BME280;44389;51.578;5.456;2023-05-02T03:07:50;101987.63;;;9.01;100.00
58622;BME280;44389;51.578;5.456;2023-05-02T03:10:16;101984.28;;;9.02;100.00
58622;BME280;44389;51.578;5.456;2023-05-02T03:12:41;101990.22;;;9.01;100.00
58622;BME280;44389;51.578;5.456;2023-05-02T03:17:36;101997.75;;;8.98;100.00
58622;BME280;44389;51.578;5.456;2023-05-02T03:20:01;101997.69;;;8.96;100.00
58622;BME280;44389;51.578;5.456;2023-05-02T03:22:28;101996.78;;;8.96;100.00
58622;BME280;44389;51.578;5.456;2023-05-02T03:24:54;102001.06;;;8.95;100.00
58622;BME280;44389;51.578;5.456;2023-05-02T03:27:19;102010.63;;;8.98;100.00
58622;BME280;44389;51.578;5.456;2023-05-02T03:29:44;102010.53;;;8.96;100.00
58622;BME280;44389;51.578;5.456;2023-05-02T03:32:09;102015.56;;;8.95;100.00
58622;BME280;44389;51.578;5.456;2023-05-02T03:34:35;102016.28;;;8.92;100.00
58622;BME280;44389;51.578;5.456;2023-05-02T03:37:00;102017.13;;;8.91;100.00
58622;BME280;44389;51.578;5.456;2023-05-02T03:39:25;102017.84;;;8.88;100.00
58622;BME280;44389;51.578;5.456;2023-05-02T03:41:51;102026.16;;;8.84;100.00
58622;BME280;44389;51.578;5.456;2023-05-02T03:44:16;102023.34;;;8.80;100.00
58622;BME280;44389;51.578;5.456;2023-05-02T03:46:42;102015.38;;;8.75;100.00
58622;BME280;44389;51.578;5.456;2023-05-02T03:49:07;102022.91;;;8.72;100.00
58622;BME280;44389;51.578;5.456;2023-05-02T03:51:32;102019.38;;;8.70;100.00
58622;BME280;44389;51.578;5.456;2023-05-02T03:53:59;102028.78;;;8.69;100.00
58622;BME280;44389;51.578;5.456;2023-05-02T03:56:25;102033.84;;;8.68;100.00
58622;BME280;44389;51.578;5.456;2023-05-02T03:58:51;102035.34;;;8.64;100.00
58622;BME280;44389;51.578;5.456;2023-05-02T04:01:16;102048.97;;;8.63;100.00
58622;BME280;44389;51.578;5.456;2023-05-02T04:03:42;102046.16;;;8.59;100.00
58622;BME280;44389;51.578;5.456;2023-05-02T04:06:07;102054.31;;;8.51;100.00
58622;BME280;44389;51.578;5.456;2023-05-02T04:08:33;102053.91;;;8.45;100.00
58622;BME280;44389;51.578;5.456;2023-05-02T04:10:58;102053.75;;;8.42;100.00
58622;BME280;44389;51.578;5.456;2023-05-02T04:13:23;102060.47;;;8.40;100.00
58622;BME280;44389;51.578;5.456;2023-05-02T04:15:49;102052.59;;;8.37;100.00
58622;BME280;44389;51.578;5.456;2023-05-02T04:18:14;102065.25;;;8.34;100.00
58622;BME280;44389;51.578;5.456;2023-05-02T04:20:42;102073.56;;;8.30;100.00
58622;BME280;44389;51.578;5.456;2023-05-02T04:23:08;102071.63;;;8.26;100.00
58622;BME280;44389;51.578;5.456;2023-05-02T04:25:33;102085.97;;;8.22;100.00
58622;BME280;44389;51.578;5.456;2023-05-02T04:27:58;102086.88;;;8.22;100.00
58622;BME280;44389;51.578;5.456;2023-05-02T04:30:24;102090.22;;;8.21;100.00
58622;BME280;44389;51.578;5.456;2023-05-02T04:32:49;102098.56;;;8.17;100.00
58622;BME280;44389;51.578;5.456;2023-05-02T04:35:14;102101.38;;;8.07;100.00
58622;BME280;44389;51.578;5.456;2023-05-02T04:37:41;102105.13;;;7.99;100.00
58622;BME280;44389;51.578;5.456;2023-05-02T04:40:07;102110.28;;;7.99;100.00
58622;BME280;44389;51.578;5.456;2023-05-02T04:42:33;102122.22;;;7.98;100.00
58622;BME280;44389;51.578;5.456;2023-05-02T04:44:58;102120.53;;;7.99;100.00
58622;BME280;44389;51.578;5.456;2023-05-02T04:47:23;102117.97;;;7.99;100.00
58622;BME280;44389;51.578;5.456;2023-05-02T04:49:48;102123.09;;;7.99;100.00
58622;BME280;44389;51.578;5.456;2023-05-02T04:52:14;102124.88;;;8.00;100.00
58622;BME280;44389;51.578;5.456;2023-05-02T04:54:39;102134.38;;;8.01;100.00
58622;BME280;44389;51.578;5.456;2023-05-02T04:57:04;102136.16;;;8.02;100.00
58622;BME280;44389;51.578;5.456;2023-05-02T04:59:32;102137.09;;;8.04;100.00
58622;BME280;44389;51.578;5.456;2023-05-02T05:01:58;102140.84;;;8.09;100.00
58622;BME280;44389;51.578;5.456;2023-05-02T05:04:23;102146.34;;;8.15;100.00
58622;BME280;44389;51.578;5.456;2023-05-02T05:06:48;102148.31;;;8.19;100.00
58622;BME280;44389;51.578;5.456;2023-05-02T05:09:14;102148.31;;;8.19;100.00
58622;BME280;44389;51.578;5.456;2023-05-02T05:11:40;102151.66;;;8.18;100.00
58622;BME280;44389;51.578;5.456;2023-05-02T05:14:07;102160.19;;;8.17;100.00
58622;BME280;44389;51.578;5.456;2023-05-02T05:16:32;102160.97;;;8.16;100.00
58622;BME280;44389;51.578;5.456;2023-05-02T05:18:57;102167.88;;;8.17;100.00
58622;BME280;44389;51.578;5.456;2023-05-02T05:21:23;102167.06;;;8.18;100.00
58622;BME280;44389;51.578;5.456;2023-05-02T05:23:48;102169.84;;;8.21;100.00
58622;BME280;44389;51.578;5.456;2023-05-02T05:26:15;102177.56;;;8.21;100.00
58622;BME280;44389;51.578;5.456;2023-05-02T05:28:41;102171.63;;;8.22;100.00
58622;BME280;44389;51.578;5.456;2023-05-02T05:31:09;102175.06;;;8.23;100.00
58622;BME280;44389;51.578;5.456;2023-05-02T05:33:35;102174.91;;;8.20;100.00
58622;BME280;44389;51.578;5.456;2023-05-02T05:36:08;102192.41;;;8.12;100.00
58622;BME280;44389;51.578;5.456;2023-05-02T05:38:33;102183.31;;;8.04;100.00
58622;BME280;44389;51.578;5.456;2023-05-02T05:40:58;102183.75;;;7.97;99.82
58622;BME280;44389;51.578;5.456;2023-05-02T05:43:24;102194.59;;;7.93;100.00
58622;BME280;44389;51.578;5.456;2023-05-02T05:45:53;102199.56;;;7.89;100.00
58622;BME280;44389;51.578;5.456;2023-05-02T05:48:19;102196.00;;;7.87;100.00
58622;BME280;44389;51.578;5.456;2023-05-02T05:50:44;102196.59;;;7.83;100.00
58622;BME280;44389;51.578;5.456;2023-05-02T05:53:10;102205.41;;;7.87;100.00
58622;BME280;44389;51.578;5.456;2023-05-02T05:55:36;102202.69;;;7.99;100.00
58622;BME280;44389;51.578;5.456;2023-05-02T05:58:02;102198.72;;;8.04;100.00
58622;BME280;44389;51.578;5.456;2023-05-02T06:00:27;102209.69;;;8.15;100.00
58622;BME280;44389;51.578;5.456;2023-05-02T06:02:53;102208.75;;;8.28;99.94
58622;BME280;44389;51.578;5.456;2023-05-02T06:05:18;102214.06;;;8.31;98.66
58622;BME280;44389;51.578;5.456;2023-05-02T06:07:43;102218.97;;;8.41;99.30
58622;BME280;44389;51.578;5.456;2023-05-02T06:10:09;102227.97;;;8.48;98.99
58622;BME280;44389;51.578;5.456;2023-05-02T06:12:35;102226.75;;;8.56;99.43
58622;BME280;44389;51.578;5.456;2023-05-02T06:15:00;102229.59;;;8.61;98.91
58622;BME280;44389;51.578;5.456;2023-05-02T06:17:26;102236.44;;;8.75;100.00
58622;BME280;44389;51.578;5.456;2023-05-02T06:19:51;102235.72;;;8.78;99.59
58622;BME280;44389;51.578;5.456;2023-05-02T06:22:16;102240.53;;;8.86;99.56
58622;BME280;44389;51.578;5.456;2023-05-02T06:24:41;102243.81;;;8.99;99.49
58622;BME280;44389;51.578;5.456;2023-05-02T06:27:07;102252.50;;;9.01;97.68
58622;BME280;44389;51.578;5.456;2023-05-02T06:29:32;102251.09;;;9.06;97.36
58622;BME280;44389;51.578;5.456;2023-05-02T06:31:57;102254.03;;;9.12;97.39
58622;BME280;44389;51.578;5.456;2023-05-02T06:34:22;102265.63;;;9.20;98.27
58622;BME280;44389;51.578;5.456;2023-05-02T06:36:48;102263.88;;;9.19;95.80
58622;BME280;44389;51.578;5.456;2023-05-02T06:39:13;102266.06;;;9.28;97.29
58622;BME280;44389;51.578;5.456;2023-05-02T06:41:38;102280.63;;;9.28;96.52
58622;BME280;44389;51.578;5.456;2023-05-02T06:44:04;102280.63;;;9.28;95.09
58622;BME280;44389;51.578;5.456;2023-05-02T06:46:29;102279.50;;;9.37;97.35
58622;BME280;44389;51.578;5.456;2023-05-02T06:48:55;102287.03;;;9.49;97.36
58622;BME280;44389;51.578;5.456;2023-05-02T06:51:21;102286.66;;;9.43;94.97
58622;BME280;44389;51.578;5.456;2023-05-02T06:53:46;102290.94;;;9.43;95.79
58622;BME280;44389;51.578;5.456;2023-05-02T06:56:12;102292.44;;;9.39;95.43
58622;BME280;44389;51.578;5.456;2023-05-02T06:58:37;102294.94;;;9.37;94.97
58622;BME280;44389;51.578;5.456;2023-05-02T07:01:02;102297.38;;;9.36;93.99
58622;BME280;44389;51.578;5.456;2023-05-02T07:03:27;102301.69;;;9.50;95.54
58622;BME280;44389;51.578;5.456;2023-05-02T07:05:53;102304.69;;;9.58;94.35
58622;BME280;44389;51.578;5.456;2023-05-02T07:08:18;102303.97;;;9.61;92.84
58622;BME280;44389;51.578;5.456;2023-05-02T07:10:45;102313.81;;;9.68;92.58
58622;BME280;44389;51.578;5.456;2023-05-02T07:13:10;102318.31;;;9.72;92.07
58622;BME280;44389;51.578;5.456;2023-05-02T07:15:36;102315.66;;;9.70;89.83
58622;BME280;44389;51.578;5.456;2023-05-02T07:18:01;102326.66;;;9.68;90.03
58622;BME280;44389;51.578;5.456;2023-05-02T07:20:26;102324.56;;;9.61;87.74
58622;BME280;44389;51.578;5.456;2023-05-02T07:22:52;102328.56;;;9.55;86.82
58622;BME280;44389;51.578;5.456;2023-05-02T07:25:17;102336.81;;;9.50;86.76
58622;BME280;44389;51.578;5.456;2023-05-02T07:27:43;102331.03;;;9.54;88.34
58622;BME280;44389;51.578;5.456;2023-05-02T07:30:08;102335.19;;;9.67;86.97
58622;BME280;44389;51.578;5.456;2023-05-02T07:32:33;102335.34;;;10.00;87.62
58622;BME280;44389;51.578;5.456;2023-05-02T07:34:59;102333.63;;;10.15;85.19
58622;BME280;44389;51.578;5.456;2023-05-02T07:37:24;102334.81;;;10.37;87.38
58622;BME280;44389;51.578;5.456;2023-05-02T07:39:49;102339.44;;;10.28;84.29
58622;BME280;44389;51.578;5.456;2023-05-02T07:42:15;102349.16;;;10.17;84.57
58622;BME280;44389;51.578;5.456;2023-05-02T07:44:40;102358.34;;;9.97;87.62
58622;BME280;44389;51.578;5.456;2023-05-02T07:47:07;102362.00;;;9.70;87.36
58622;BME280;44389;51.578;5.456;2023-05-02T07:49:32;102369.31;;;9.48;85.89
58622;BME280;44389;51.578;5.456;2023-05-02T07:51:57;102368.28;;;9.31;84.70
58622;BME280;44389;51.578;5.456;2023-05-02T07:54:23;102370.22;;;9.20;84.47
58622;BME280;44389;51.578;5.456;2023-05-02T07:56:50;102371.34;;;9.10;83.99
58622;BME280;44389;51.578;5.456;2023-05-02T07:59:15;102376.31;;;9.07;83.76
58622;BME280;44389;51.578;5.456;2023-05-02T08:01:41;102378.47;;;9.14;84.42
58622;BME280;44389;51.578;5.456;2023-05-02T08:04:07;102382.09;;;9.18;84.47
58622;BME280;44389;51.578;5.456;2023-05-02T08:06:34;102381.16;;;9.31;85.61
58622;BME280;44389;51.578;5.456;2023-05-02T08:09:00;102380.88;;;9.41;85.29
58622;BME280;44389;51.578;5.456;2023-05-02T08:11:26;102391.75;;;9.50;82.77
58622;BME280;44389;51.578;5.456;2023-05-02T08:13:51;102388.47;;;9.68;83.06
58622;BME280;44389;51.578;5.456;2023-05-02T08:16:17;102385.34;;;9.88;82.65
58622;BME280;44389;51.578;5.456;2023-05-02T08:18:43;102392.44;;;10.08;82.14
58622;BME280;44389;51.578;5.456;2023-05-02T08:21:09;102383.88;;;10.24;78.46
58622;BME280;44389;51.578;5.456;2023-05-02T08:23:34;102398.72;;;10.28;76.74
58622;BME280;44389;51.578;5.456;2023-05-02T08:26:01;102403.03;;;10.29;74.25
58622;BME280;44389;51.578;5.456;2023-05-02T08:28:26;102398.34;;;10.36;74.93
58622;BME280;44389;51.578;5.456;2023-05-02T08:30:52;102408.63;;;10.51;73.39
58622;BME280;44389;51.578;5.456;2023-05-02T08:33:17;102402.91;;;10.57;73.01
58622;BME280;44389;51.578;5.456;2023-05-02T08:35:42;102411.78;;;10.62;71.65
58622;BME280;44389;51.578;5.456;2023-05-02T08:38:08;102414.63;;;10.67;69.61
58622;BME280;44389;51.578;5.456;2023-05-02T08:40:35;102415.59;;;10.85;71.09
58622;BME280;44389;51.578;5.456;2023-05-02T08:43:02;102412.72;;;10.96;69.86
58622;BME280;44389;51.578;5.456;2023-05-02T08:45:33;102422.47;;;11.18;71.74
58622;BME280;44389;51.578;5.456;2023-05-02T08:48:05;102420.78;;;11.35;70.64
58622;BME280;44389;51.578;5.456;2023-05-02T08:50:35;102421.59;;;11.50;67.06
58622;BME280;44389;51.578;5.456;2023-05-02T08:53:03;102412.66;;;11.62;69.40
58622;BME280;44389;51.578;5.456;2023-05-02T08:55:28;102419.50;;;11.78;66.92
58622;BME280;44389;51.578;5.456;2023-05-02T08:57:56;102427.63;;;11.85;66.92
58622;BME280;44389;51.578;5.456;2023-05-02T09:00:22;102430.34;;;11.89;67.65
58622;BME280;44389;51.578;5.456;2023-05-02T09:05:23;102428.13;;;12.31;67.41
58622;BME280;44389;51.578;5.456;2023-05-02T09:07:50;102432.38;;;12.48;63.88
58622;BME280;44389;51.578;5.456;2023-05-02T09:10:16;102429.41;;;12.59;64.36
58622;BME280;44389;51.578;5.456;2023-05-02T09:12:41;102449.25;;;12.40;62.91
58622;BME280;44389;51.578;5.456;2023-05-02T09:15:11;102453.47;;;12.02;62.52
58622;BME280;44389;51.578;5.456;2023-05-02T09:17:42;102447.06;;;11.61;62.30
58622;BME280;44389;51.578;5.456;2023-05-02T09:20:09;102456.75;;;11.48;66.56
58622;BME280;44389;51.578;5.456;2023-05-02T09:22:35;102456.50;;;11.60;67.59
58622;BME280;44389;51.578;5.456;2023-05-02T09:25:00;102459.50;;;11.35;66.92
58622;BME280;44389;51.578;5.456;2023-05-02T09:27:26;102460.38;;;11.35;67.03
58622;BME280;44389;51.578;5.456;2023-05-02T09:29:51;102467.09;;;11.48;67.58
58622;BME280;44389;51.578;5.456;2023-05-02T09:32:17;102469.19;;;11.56;65.36
58622;BME280;44389;51.578;5.456;2023-05-02T09:35:05;102472.22;;;11.81;66.54
58622;BME280;44389;51.578;5.456;2023-05-02T09:37:33;102466.38;;;11.85;64.69
58622;BME280;44389;51.578;5.456;2023-05-02T09:40:05;102472.50;;;11.88;63.56
58622;BME280;44389;51.578;5.456;2023-05-02T09:42:30;102477.19;;;12.29;63.05
58622;BME280;44389;51.578;5.456;2023-05-02T09:44:56;102469.47;;;12.85;63.83
58622;BME280;44389;51.578;5.456;2023-05-02T09:47:25;102480.84;;;12.89;65.42
58622;BME280;44389;51.578;5.456;2023-05-02T09:49:51;102486.88;;;12.89;63.92
58622;BME280;44389;51.578;5.456;2023-05-02T09:52:18;102487.34;;;12.80;62.16
58622;BME280;44389;51.578;5.456;2023-05-02T09:54:46;102492.91;;;12.70;63.06
58622;BME280;44389;51.578;5.456;2023-05-02T09:57:11;102486.13;;;12.36;61.55
58622;BME280;44389;51.578;5.456;2023-05-02T09:59:38;102491.22;;;13.08;63.44
58622;BME280;44389;51.578;5.456;2023-05-02T10:02:05;102489.75;;;13.53;60.53
58622;BME280;44389;51.578;5.456;2023-05-02T10:04:32;102490.44;;;14.53;56.58
58622;BME280;44389;51.578;5.456;2023-05-02T10:06:57;102494.06;;;14.35;54.91
58622;BME280;44389;51.578;5.456;2023-05-02T10:09:24;102499.88;;;13.87;55.51
58622;BME280;44389;51.578;5.456;2023-05-02T10:11:52;102495.50;;;13.45;55.66
58622;BME280;44389;51.578;5.456;2023-05-02T10:14:22;102497.09;;;12.86;57.34
58622;BME280;44389;51.578;5.456;2023-05-02T10:17:12;102502.59;;;12.56;60.20
58622;BME280;44389;51.578;5.456;2023-05-02T10:22:18;102501.72;;;12.03;58.84
58622;BME280;44389;51.578;5.456;2023-05-02T10:24:43;102498.59;;;12.09;60.48
58622;BME280;44389;51.578;5.456;2023-05-02T10:27:10;102498.81;;;12.31;58.71
58622;BME280;44389;51.578;5.456;2023-05-02T10:29:36;102503.47;;;12.57;60.36
58622;BME280;44389;51.578;5.456;2023-05-02T10:32:03;102508.03;;;12.80;60.12
58622;BME280;44389;51.578;5.456;2023-05-02T10:34:31;102503.66;;;13.74;56.37
58622;BME280;44389;51.578;5.456;2023-05-02T10:36:58;102496.09;;;14.86;56.65
58622;BME280;44389;51.578;5.456;2023-05-02T10:39:26;102509.50;;;15.94;50.40
58622;BME280;44389;51.578;5.456;2023-05-02T10:41:53;102507.69;;;16.99;47.04
58622;BME280;44389;51.578;5.456;2023-05-02T10:44:36;102506.44;;;17.47;45.55
58622;BME280;44389;51.578;5.456;2023-05-02T10:49:58;102504.34;;;17.99;42.94
58622;BME280;44389;51.578;5.456;2023-05-02T10:52:24;102506.00;;;17.97;44.90
58622;BME280;44389;51.578;5.456;2023-05-02T10:54:50;102502.06;;;15.55;42.21
58622;BME280;44389;51.578;5.456;2023-05-02T10:57:16;102507.78;;;16.20;43.75
58622;BME280;44389;51.578;5.456;2023-05-02T10:59:41;102506.59;;;17.87;44.19
58622;BME280;44389;51.578;5.456;2023-05-02T11:07:24;102517.75;;;19.77;35.73
58622;BME280;44389;51.578;5.456;2023-05-02T11:09:49;102519.81;;;18.63;36.79
58622;BME280;44389;51.578;5.456;2023-05-02T11:12:48;102525.81;;;17.90;39.36
58622;BME280;44389;51.578;5.456;2023-05-02T11:18:01;102520.38;;;19.29;37.60
58622;BME280;44389;51.578;5.456;2023-05-02T11:20:27;102523.06;;;19.80;39.02
58622;BME280;44389;51.578;5.456;2023-05-02T11:22:55;102528.69;;;18.71;35.31
58622;BME280;44389;51.578;5.456;2023-05-02T11:25:40;102532.16;;;19.53;38.93
58622;BME280;44389;51.578;5.456;2023-05-02T11:28:07;102526.28;;;20.14;33.88
58622;BME280;44389;51.578;5.456;2023-05-02T11:30:37;102521.13;;;21.44;32.86
58622;BME280;44389;51.578;5.456;2023-05-02T11:35:28;102526.94;;;19.54;34.60
58622;BME280;44389;51.578;5.456;2023-05-02T11:37:58;102524.09;;;19.42;35.95
58622;BME280;44389;51.578;5.456;2023-05-02T11:40:24;102524.94;;;18.97;34.64
58622;BME280;44389;51.578;5.456;2023-05-02T11:42:50;102522.09;;;19.74;35.07
58622;BME280;44389;51.578;5.456;2023-05-02T11:45:16;102519.72;;;19.87;34.33
58622;BME280;44389;51.578;5.456;2023-05-02T11:47:42;102520.63;;;21.02;35.65
58622;BME280;44389;51.578;5.456;2023-05-02T11:50:08;102531.16;;;19.92;32.80
58622;BME280;44389;51.578;5.456;2023-05-02T11:52:42;102532.69;;;18.55;34.99
58622;BME280;44389;51.578;5.456;2023-05-02T11:55:12;102537.13;;;17.27;36.31
58622;BME280;44389;51.578;5.456;2023-05-02T11:57:38;102527.81;;;18.34;35.08
58622;BME280;44389;51.578;5.456;2023-05-02T12:00:05;102534.09;;;19.19;32.27
58622;BME280;44389;51.578;5.456;2023-05-02T12:02:37;102528.84;;;20.09;33.23
58622;BME280;44389;51.578;5.456;2023-05-02T12:05:03;102538.94;;;20.41;32.76
58622;BME280;44389;51.578;5.456;2023-05-02T12:07:42;102539.59;;;20.83;31.35
58622;BME280;44389;51.578;5.456;2023-05-02T12:10:10;102533.66;;;20.95;29.67
58622;BME280;44389;51.578;5.456;2023-05-02T12:12:37;102544.00;;;20.85;29.46
58622;BME280;44389;51.578;5.456;2023-05-02T12:15:07;102552.53;;;19.71;31.27
58622;BME280;44389;51.578;5.456;2023-05-02T12:17:36;102551.84;;;18.21;34.76
58622;BME280;44389;51.578;5.456;2023-05-02T12:20:03;102552.94;;;17.33;35.82
58622;BME280;44389;51.578;5.456;2023-05-02T12:22:30;102554.69;;;16.49;36.00
58622;BME280;44389;51.578;5.456;2023-05-02T12:24:55;102558.63;;;16.91;38.80
58622;BME280;44389;51.578;5.456;2023-05-02T12:27:21;102556.31;;;17.29;37.35
58622;BME280;44389;51.578;5.456;2023-05-02T12:29:47;102559.75;;;18.24;36.01
58622;BME280;44389;51.578;5.456;2023-05-02T12:32:13;102557.13;;;19.37;34.94
58622;BME280;44389;51.578;5.456;2023-05-02T12:34:39;102562.06;;;19.23;31.96
58622;BME280;44389;51.578;5.456;2023-05-02T12:37:07;102564.91;;;18.21;32.52
58622;BME280;44389;51.578;5.456;2023-05-02T12:41:58;102572.50;;;17.19;35.08
58622;BME280;44389;51.578;5.456;2023-05-02T12:44:38;102578.78;;;16.43;38.59
58622;BME280;44389;51.578;5.456;2023-05-02T12:47:03;102584.72;;;16.13;36.85
58622;BME280;44389;51.578;5.456;2023-05-02T12:49:29;102574.91;;;17.73;37.38
58622;BME280;44389;51.578;5.456;2023-05-02T12:51:55;102578.88;;;18.95;33.83
58622;BME280;44389;51.578;5.456;2023-05-02T12:54:21;102586.41;;;19.63;33.55
58622;BME280;44389;51.578;5.456;2023-05-02T12:56:46;102587.25;;;20.06;31.44
58622;BME280;44389;51.578;5.456;2023-05-02T12:59:29;102584.41;;;21.01;31.52
58622;BME280;44389;51.578;5.456;2023-05-02T13:01:55;102574.38;;;20.19;30.49
58622;BME280;44389;51.578;5.456;2023-05-02T13:04:21;102586.34;;;18.81;32.49
58622;BME280;44389;51.578;5.456;2023-05-02T13:06:46;102586.25;;;17.43;36.36
58622;BME280;44389;51.578;5.456;2023-05-02T13:09:11;102582.13;;;16.92;38.50
58622;BME280;44389;51.578;5.456;2023-05-02T13:11:37;102584.63;;;16.36;37.22
58622;BME280;44389;51.578;5.456;2023-05-02T13:14:03;102577.97;;;17.28;37.02
58622;BME280;44389;51.578;5.456;2023-05-02T13:16:29;102584.00;;;18.20;34.37
58622;BME280;44389;51.578;5.456;2023-05-02T13:18:55;102585.44;;;19.17;31.40
58622;BME280;44389;51.578;5.456;2023-05-02T13:21:21;102576.66;;;19.56;32.17
58622;BME280;44389;51.578;5.456;2023-05-02T13:23:46;102564.47;;;19.56;30.91
58622;BME280;44389;51.578;5.456;2023-05-02T13:26:12;102574.34;;;19.71;30.97
58622;BME280;44389;51.578;5.456;2023-05-02T13:28:37;102580.13;;;19.98;30.31
58622;BME280;44389;51.578;5.456;2023-05-02T13:31:03;102574.47;;;20.25;31.24
58622;BME280;44389;51.578;5.456;2023-05-02T13:33:28;102574.22;;;20.63;30.44
58622;BME280;44389;51.578;5.456;2023-05-02T13:35:53;102571.75;;;20.19;30.82